createdAt,value
2023-02-15T00:01:30.608Z,101991.56
2023-02-15T00:03:58.839Z,101987.05
2023-02-15T00:06:27.489Z,101991.73
2023-02-15T00:08:56.453Z,101992.63
2023-02-15T00:11:43.390Z,101994.31
2023-02-15T00:14:16.732Z,101988.94
2023-02-15T00:16:46.034Z,101988.89
2023-02-15T00:19:16.550Z,101986.45
2023-02-15T00:21:45.330Z,101985.23
2023-02-15T00:24:16.310Z,101978.16
2023-02-15T00:26:45.150Z,101973.41
2023-02-15T00:29:16.320Z,101967.27
2023-02-15T00:31:44.815Z,101968.24
2023-02-15T00:34:22.311Z,101971.80
2023-02-15T00:36:51.185Z,101973.34
2023-02-15T00:39:20.069Z,101970.81
2023-02-15T00:41:48.763Z,101970.31
2023-02-15T00:44:17.282Z,101971.27
2023-02-15T00:46:45.561Z,101969.35
2023-02-15T00:49:13.836Z,101966.15
2023-02-15T00:51:42.120Z,101963.29
2023-02-15T00:54:10.538Z,101966.23
2023-02-15T00:56:38.806Z,101963.81
2023-02-15T00:59:07.519Z,101960.76
2023-02-15T01:01:35.839Z,101963.05
2023-02-15T01:04:04.230Z,101962.48
2023-02-15T01:06:32.591Z,101963.44
2023-02-15T01:09:00.840Z,101958.80
2023-02-15T01:11:29.134Z,101956.82
2023-02-15T01:13:59.135Z,101955.73
2023-02-15T01:16:28.981Z,101959.03
2023-02-15T01:18:57.842Z,101956.45
2023-02-15T01:21:27.503Z,101952.90
2023-02-15T01:23:55.740Z,101955.13
2023-02-15T01:26:24.172Z,101954.88
2023-02-15T01:28:52.454Z,101949.84
2023-02-15T01:31:22.691Z,101948.98
2023-02-15T01:33:51.105Z,101945.08
2023-02-15T01:36:19.488Z,101947.04
2023-02-15T01:38:47.804Z,101940.75
2023-02-15T01:41:24.421Z,101938.93
2023-02-15T01:43:59.744Z,101938.98
2023-02-15T01:46:42.321Z,101933.98
2023-02-15T01:49:18.254Z,101926.70
2023-02-15T01:51:48.658Z,101924.99
2023-02-15T01:54:21.826Z,101923.25
2023-02-15T01:56:50.120Z,101920.09
2023-02-15T01:59:22.337Z,101918.05
2023-02-15T02:01:53.636Z,101918.39
2023-02-15T02:04:34.538Z,101913.55
2023-02-15T02:07:04.904Z,101909.62
2023-02-15T02:09:33.663Z,101904.02
2023-02-15T02:12:02.820Z,101901.50
2023-02-15T02:14:31.984Z,101894.98
2023-02-15T02:17:06.235Z,101893.63
2023-02-15T02:19:53.099Z,101887.83
2023-02-15T02:22:21.299Z,101889.45
2023-02-15T02:25:02.236Z,101884.27
2023-02-15T02:27:41.097Z,101884.22
2023-02-15T02:30:38.596Z,101881.58
2023-02-15T02:33:12.828Z,101874.10
2023-02-15T02:36:07.400Z,101871.70
2023-02-15T02:39:04.625Z,101868.67
2023-02-15T02:41:38.088Z,101859.54
2023-02-15T02:44:12.200Z,101857.78
2023-02-15T02:47:10.628Z,101862.38
2023-02-15T02:49:44.698Z,101859.11
2023-02-15T02:52:48.431Z,101853.30
2023-02-15T02:55:42.381Z,101854.65
2023-02-15T02:58:38.765Z,101852.52
2023-02-15T03:01:14.860Z,101855.54
2023-02-15T03:03:48.206Z,101855.77
2023-02-15T03:06:30.468Z,101855.91
2023-02-15T03:09:06.644Z,101854.83
2023-02-15T03:11:35.294Z,101850.62
2023-02-15T03:14:03.602Z,101846.82
2023-02-15T03:16:32.485Z,101843.28
2023-02-15T03:19:10.068Z,101841.59
2023-02-15T03:21:58.847Z,101844.34
2023-02-15T03:24:37.093Z,101839.90
2023-02-15T03:27:13.033Z,101833.73
2023-02-15T03:29:41.273Z,101831.75
2023-02-15T03:32:12.423Z,101827.84
2023-02-15T03:34:40.906Z,101824.98
2023-02-15T03:37:25.549Z,101825.23
2023-02-15T03:40:36.054Z,101821.77
2023-02-15T03:43:32.811Z,101813.16
2023-02-15T03:46:14.051Z,101814.09
2023-02-15T03:48:53.347Z,101812.48
2023-02-15T03:51:36.221Z,101813.30
2023-02-15T03:54:43.673Z,101814.98
2023-02-15T03:57:53.886Z,101810.88
2023-02-15T04:00:45.041Z,101811.84
2023-02-15T04:03:21.548Z,101811.48
2023-02-15T04:05:50.169Z,101813.42
2023-02-15T04:08:18.403Z,101814.77
2023-02-15T04:10:57.290Z,101813.44
2023-02-15T04:13:32.741Z,101814.06
2023-02-15T04:16:08.143Z,101817.67
2023-02-15T04:19:00.838Z,101816.40
2023-02-15T04:21:49.998Z,101813.13
2023-02-15T04:24:37.773Z,101811.91
2023-02-15T04:27:07.035Z,101809.98
2023-02-15T04:29:35.337Z,101805.75
2023-02-15T04:32:03.707Z,101803.85
2023-02-15T04:34:32.060Z,101801.53
2023-02-15T04:37:00.573Z,101794.60
2023-02-15T04:39:28.754Z,101789.98
2023-02-15T04:41:56.965Z,101788.05
2023-02-15T04:44:25.337Z,101788.20
2023-02-15T04:46:53.578Z,101786.27
2023-02-15T04:49:21.806Z,101781.12
2023-02-15T04:51:50.072Z,101776.52
2023-02-15T04:54:18.302Z,101775.52
2023-02-15T04:56:46.600Z,101776.57
2023-02-15T04:59:15.109Z,101777.42
2023-02-15T05:01:43.307Z,101778.77
2023-02-15T05:04:11.885Z,101773.77
2023-02-15T05:06:40.247Z,101769.15
2023-02-15T05:09:08.553Z,101769.64
2023-02-15T05:11:36.765Z,101764.36
2023-02-15T05:14:05.767Z,101761.08
2023-02-15T05:16:34.453Z,101762.15
2023-02-15T05:19:02.716Z,101756.16
2023-02-15T05:21:31.320Z,101758.86
2023-02-15T05:23:59.666Z,101754.37
2023-02-15T05:26:46.597Z,101754.64
2023-02-15T05:29:14.864Z,101749.92
2023-02-15T05:31:45.535Z,101743.48
2023-02-15T05:34:14.027Z,101747.58
2023-02-15T05:36:42.324Z,101747.25
2023-02-15T05:39:10.594Z,101751.34
2023-02-15T05:41:38.781Z,101752.67
2023-02-15T05:44:07.073Z,101754.86
2023-02-15T05:46:35.359Z,101753.88
2023-02-15T05:49:03.592Z,101752.96
2023-02-15T05:51:31.882Z,101751.61
2023-02-15T05:54:00.113Z,101750.30
2023-02-15T05:56:28.373Z,101745.68
2023-02-15T05:58:56.668Z,101739.15
2023-02-15T06:01:24.842Z,101744.50
2023-02-15T06:03:53.607Z,101743.26
2023-02-15T06:06:21.881Z,101739.23
2023-02-15T06:08:50.365Z,101741.17
2023-02-15T06:11:18.903Z,101734.24
2023-02-15T06:13:47.468Z,101734.10
2023-02-15T06:16:17.167Z,101729.73
2023-02-15T06:18:45.546Z,101729.13
2023-02-15T06:21:14.284Z,101726.94
2023-02-15T06:23:42.642Z,101723.27
2023-02-15T06:26:10.999Z,101727.36
2023-02-15T06:28:39.359Z,101730.89
2023-02-15T06:31:07.978Z,101736.73
2023-02-15T06:33:36.363Z,101730.38
2023-02-15T06:36:05.102Z,101735.64
2023-02-15T06:38:33.654Z,101735.77
2023-02-15T06:41:01.833Z,101730.85
2023-02-15T06:43:30.090Z,101728.97
2023-02-15T06:45:59.370Z,101724.27
2023-02-15T06:48:27.955Z,101725.39
2023-02-15T06:50:56.329Z,101721.70
2023-02-15T06:53:24.719Z,101720.89
2023-02-15T06:55:52.919Z,101720.86
2023-02-15T06:58:21.191Z,101717.00
2023-02-15T07:00:50.651Z,101715.77
2023-02-15T07:03:18.904Z,101714.24
2023-02-15T07:05:48.710Z,101715.98
2023-02-15T07:08:16.939Z,101711.65
2023-02-15T07:10:45.512Z,101708.84
2023-02-15T07:13:13.785Z,101707.86
2023-02-15T07:15:41.997Z,101711.83
2023-02-15T07:18:11.843Z,101710.02
2023-02-15T07:20:42.692Z,101703.66
2023-02-15T07:23:10.936Z,101700.80
2023-02-15T07:25:39.192Z,101699.91
2023-02-15T07:28:08.166Z,101694.10
2023-02-15T07:30:38.382Z,101692.30
2023-02-15T07:33:25.302Z,101687.58
2023-02-15T07:35:59.285Z,101682.40
2023-02-15T07:38:29.097Z,101675.16
2023-02-15T07:41:01.864Z,101674.63
2023-02-15T07:43:31.163Z,101668.87
2023-02-15T07:46:05.919Z,101661.40
2023-02-15T07:48:35.073Z,101662.09
2023-02-15T07:51:06.156Z,101653.60
2023-02-15T07:53:35.181Z,101653.63
2023-02-15T07:56:07.379Z,101650.59
2023-02-15T07:58:55.100Z,101652.07
2023-02-15T08:01:30.941Z,101652.16
2023-02-15T08:03:59.656Z,101650.92
2023-02-15T08:06:30.671Z,101647.64
2023-02-15T08:08:59.210Z,101643.65
2023-02-15T08:11:31.206Z,101640.66
2023-02-15T08:14:03.791Z,101636.82
2023-02-15T08:16:35.325Z,101634.86
2023-02-15T08:19:07.613Z,101634.96
2023-02-15T08:21:38.507Z,101630.88
2023-02-15T08:24:08.375Z,101629.35
2023-02-15T08:26:37.179Z,101625.84
2023-02-15T08:29:07.794Z,101625.05
2023-02-15T08:31:38.465Z,101624.73
2023-02-15T08:34:07.235Z,101623.65
2023-02-15T08:36:36.200Z,101621.58
2023-02-15T08:39:06.212Z,101618.03
2023-02-15T08:41:35.939Z,101613.73
2023-02-15T08:44:07.795Z,101613.96
2023-02-15T08:46:39.506Z,101612.58
2023-02-15T08:49:07.776Z,101606.89
2023-02-15T08:51:38.044Z,101602.77
2023-02-15T08:54:11.757Z,101603.98
2023-02-15T08:56:42.280Z,101597.68
2023-02-15T08:59:18.030Z,101595.15
2023-02-15T09:01:47.092Z,101587.40
2023-02-15T09:04:17.024Z,101586.63
2023-02-15T09:06:49.079Z,101582.98
2023-02-15T09:09:18.929Z,101579.71
2023-02-15T09:11:51.394Z,101584.86
2023-02-15T09:14:22.788Z,101585.18
2023-02-15T09:16:53.200Z,101587.41
2023-02-15T09:19:23.155Z,101582.66
2023-02-15T09:21:51.516Z,101582.77
2023-02-15T09:24:20.033Z,101583.55
2023-02-15T09:26:49.737Z,101573.02
2023-02-15T09:29:18.885Z,101572.95
2023-02-15T09:31:51.129Z,101565.96
2023-02-15T09:34:22.299Z,101565.84
2023-02-15T09:36:52.163Z,101566.10
2023-02-15T09:39:30.623Z,101567.42
2023-02-15T09:42:56.594Z,101564.88
2023-02-15T09:45:33.327Z,101559.75
2023-02-15T09:48:07.160Z,101551.83
2023-02-15T09:50:54.493Z,101550.70
2023-02-15T09:53:22.679Z,101549.83
2023-02-15T09:56:15.240Z,101547.73
2023-02-15T09:58:52.389Z,101554.98
2023-02-15T10:01:32.734Z,101553.23
2023-02-15T10:04:01.003Z,101553.09
2023-02-15T10:06:49.844Z,101546.73
2023-02-15T10:09:43.311Z,101553.32
2023-02-15T10:12:20.290Z,101549.52
2023-02-15T10:14:58.696Z,101554.27
2023-02-15T10:18:00.146Z,101554.90
2023-02-15T10:20:49.190Z,101547.55
2023-02-15T10:23:32.905Z,101544.39
2023-02-15T10:26:19.953Z,101536.91
2023-02-15T10:28:55.329Z,101534.85
2023-02-15T10:31:38.312Z,101530.86
2023-02-15T10:34:15.875Z,101522.25
2023-02-15T10:36:56.419Z,101519.11
2023-02-15T10:39:40.044Z,101523.92
2023-02-15T10:42:37.136Z,101526.20
2023-02-15T10:45:11.421Z,101520.77
2023-02-15T10:48:22.628Z,101522.30
2023-02-15T10:50:57.414Z,101517.64
2023-02-15T10:53:47.663Z,101518.42
2023-02-15T10:56:31.344Z,101514.81
2023-02-15T10:59:18.862Z,101514.10
2023-02-15T11:01:56.528Z,101508.44
2023-02-15T11:04:29.250Z,101496.08
2023-02-15T11:07:07.071Z,101490.55
2023-02-15T11:09:43.497Z,101485.06
2023-02-15T11:12:17.205Z,101482.09
2023-02-15T11:15:12.766Z,101479.84
2023-02-15T11:17:47.207Z,101475.60
2023-02-15T11:20:30.665Z,101471.06
2023-02-15T11:23:02.061Z,101470.20
2023-02-15T11:25:35.826Z,101468.73
2023-02-15T11:28:13.150Z,101462.71
2023-02-15T11:30:52.909Z,101457.67
2023-02-15T11:33:30.762Z,101453.95
2023-02-15T11:36:05.313Z,101446.07
2023-02-15T11:38:35.690Z,101440.98
2023-02-15T11:41:11.053Z,101438.45
2023-02-15T11:43:49.540Z,101443.55
2023-02-15T11:46:19.981Z,101437.51
2023-02-15T11:48:49.048Z,101441.61
2023-02-15T11:51:22.667Z,101433.55
2023-02-15T11:53:53.858Z,101432.58
2023-02-15T11:56:25.193Z,101426.73
2023-02-15T11:59:15.609Z,101425.71
2023-02-15T12:01:46.049Z,101420.42
2023-02-15T12:04:41.716Z,101422.13
2023-02-15T12:07:31.515Z,101424.79
2023-02-15T12:10:05.512Z,101418.59
2023-02-15T12:12:37.539Z,101415.95
2023-02-15T12:15:09.349Z,101412.52
2023-02-15T12:17:42.564Z,101414.41
2023-02-15T12:20:13.621Z,101409.50
2023-02-15T12:22:51.038Z,101411.47
2023-02-15T12:25:24.995Z,101411.35
2023-02-15T12:27:53.459Z,101410.56
2023-02-15T12:30:51.865Z,101403.55
2023-02-15T12:33:26.181Z,101406.27
2023-02-15T12:36:20.302Z,101394.83
2023-02-15T12:39:09.199Z,101390.77
2023-02-15T12:41:38.632Z,101380.89
2023-02-15T12:44:24.543Z,101381.28
2023-02-15T12:47:08.558Z,101379.20
2023-02-15T12:49:39.518Z,101387.77
2023-02-15T12:52:26.241Z,101397.13
2023-02-15T12:54:54.498Z,101394.83
2023-02-15T12:57:28.975Z,101390.51
2023-02-15T13:00:01.901Z,101387.50
2023-02-15T13:02:56.698Z,101380.66
2023-02-15T13:05:44.216Z,101378.39
2023-02-15T13:08:42.842Z,101374.67
2023-02-15T13:11:13.372Z,101372.83
2023-02-15T13:14:27.654Z,101365.00
2023-02-15T13:17:00.349Z,101364.66
2023-02-15T13:19:44.046Z,101359.16
2023-02-15T13:22:18.470Z,101354.66
2023-02-15T13:25:30.206Z,101348.64
2023-02-15T13:28:06.355Z,101339.56
2023-02-15T13:30:43.354Z,101341.95
2023-02-15T13:33:38.610Z,101334.93
2023-02-15T13:36:19.248Z,101332.48
2023-02-15T13:39:12.040Z,101327.46
2023-02-15T13:42:07.219Z,101326.61
2023-02-15T13:44:38.563Z,101321.72
2023-02-15T13:47:25.185Z,101314.95
2023-02-15T13:50:12.451Z,101314.90
2023-02-15T13:52:53.437Z,101313.31
2023-02-15T13:55:52.166Z,101316.22
2023-02-15T13:58:45.452Z,101313.36
2023-02-15T14:01:34.057Z,101313.35
2023-02-15T14:04:21.175Z,101310.80
2023-02-15T14:06:58.689Z,101306.15
2023-02-15T14:09:42.346Z,101309.16
2023-02-15T14:12:29.461Z,101307.25
2023-02-15T14:15:13.000Z,101301.92
2023-02-15T14:17:50.994Z,101294.05
2023-02-15T14:20:42.890Z,101288.08
2023-02-15T14:23:30.700Z,101289.73
2023-02-15T14:26:11.100Z,101286.87
2023-02-15T14:28:58.037Z,101283.34
2023-02-15T14:31:34.715Z,101285.19
2023-02-15T14:34:05.574Z,101285.95
2023-02-15T14:36:34.793Z,101288.77
2023-02-15T14:39:47.982Z,101290.02
2023-02-15T14:42:39.272Z,101287.21
2023-02-15T14:45:19.322Z,101282.34
2023-02-15T14:47:57.019Z,101279.13
2023-02-15T14:50:50.044Z,101275.16
2023-02-15T14:53:39.677Z,101277.52
2023-02-15T14:56:19.275Z,101276.19
2023-02-15T14:58:53.623Z,101273.81
2023-02-15T15:01:34.540Z,101273.57
2023-02-15T15:04:10.001Z,101270.61
2023-02-15T15:06:42.214Z,101265.27
2023-02-15T15:09:30.854Z,101267.73
2023-02-15T15:12:21.970Z,101264.19
2023-02-15T15:14:51.918Z,101261.00
2023-02-15T15:17:35.427Z,101255.89
2023-02-15T15:20:14.808Z,101253.02
2023-02-15T15:22:44.412Z,101250.11
2023-02-15T15:25:37.838Z,101243.89
2023-02-15T15:28:07.439Z,101241.51
2023-02-15T15:30:35.794Z,101239.00
2023-02-15T15:33:13.129Z,101242.75
2023-02-15T15:35:57.130Z,101244.23
2023-02-15T15:38:50.347Z,101242.91
2023-02-15T15:41:36.800Z,101241.54
2023-02-15T15:44:10.897Z,101241.03
2023-02-15T15:46:58.302Z,101238.11
2023-02-15T15:49:32.246Z,101235.84
2023-02-15T15:52:21.260Z,101234.48
2023-02-15T15:54:56.244Z,101236.63
2023-02-15T15:57:39.496Z,101231.83
2023-02-15T16:00:26.072Z,101232.73
2023-02-15T16:02:56.736Z,101229.98
2023-02-15T16:05:25.188Z,101224.59
2023-02-15T16:07:53.605Z,101224.20
2023-02-15T16:10:25.260Z,101222.40
2023-02-15T16:12:55.760Z,101220.10
2023-02-15T16:15:36.160Z,101214.14
2023-02-15T16:18:05.311Z,101211.90
2023-02-15T16:20:38.126Z,101213.49
2023-02-15T16:23:24.857Z,101212.33
2023-02-15T16:26:27.121Z,101214.23
2023-02-15T16:28:55.919Z,101215.20
2023-02-15T16:31:24.509Z,101210.80
2023-02-15T16:33:55.882Z,101214.39
2023-02-15T16:36:28.977Z,101216.79
2023-02-15T16:38:57.237Z,101212.82
2023-02-15T16:41:28.772Z,101221.60
2023-02-15T16:44:02.792Z,101218.61
2023-02-15T16:46:32.713Z,101222.98
2023-02-15T16:49:06.284Z,101222.30
2023-02-15T16:51:37.102Z,101218.96
2023-02-15T16:54:09.050Z,101218.55
2023-02-15T16:56:37.602Z,101210.67
2023-02-15T16:59:06.229Z,101209.09
2023-02-15T17:01:36.325Z,101210.55
2023-02-15T17:04:15.692Z,101209.06
2023-02-15T17:06:59.930Z,101212.48
2023-02-15T17:09:28.272Z,101211.52
2023-02-15T17:11:57.093Z,101208.49
2023-02-15T17:14:30.070Z,101213.52
2023-02-15T17:17:07.329Z,101209.14
2023-02-15T17:19:46.807Z,101206.42
2023-02-15T17:22:22.672Z,101204.46
2023-02-15T17:25:00.646Z,101202.54
2023-02-15T17:27:33.047Z,101198.38
2023-02-15T17:30:18.459Z,101201.06
2023-02-15T17:33:19.830Z,101195.10
2023-02-15T17:36:13.032Z,101191.48
2023-02-15T17:39:00.422Z,101184.65
2023-02-15T17:41:38.501Z,101186.20
2023-02-15T17:44:15.123Z,101182.27
2023-02-15T17:46:48.365Z,101178.73
2023-02-15T17:49:28.049Z,101175.52
2023-02-15T17:51:57.130Z,101173.12
2023-02-15T17:54:44.435Z,101169.15
2023-02-15T17:57:17.082Z,101168.95
2023-02-15T18:00:04.653Z,101165.81
2023-02-15T18:02:55.254Z,101167.59
2023-02-15T18:05:42.517Z,101168.63
2023-02-15T18:08:37.828Z,101165.27
2023-02-15T18:11:29.615Z,101156.36
2023-02-15T18:14:01.707Z,101153.58
2023-02-15T18:16:43.511Z,101151.94
2023-02-15T18:19:17.203Z,101149.30
2023-02-15T18:21:47.292Z,101144.98
2023-02-15T18:24:24.631Z,101143.74
2023-02-15T18:26:54.572Z,101142.08
2023-02-15T18:29:22.975Z,101136.48
2023-02-15T18:31:57.964Z,101134.17
2023-02-15T18:34:32.840Z,101128.70
2023-02-15T18:37:06.573Z,101131.49
2023-02-15T18:39:34.823Z,101128.27
2023-02-15T18:42:05.195Z,101128.84
2023-02-15T18:44:33.500Z,101136.34
2023-02-15T18:47:01.809Z,101133.45
2023-02-15T18:49:30.003Z,101129.92
2023-02-15T18:51:58.248Z,101131.39
2023-02-15T18:54:27.037Z,101126.77
2023-02-15T18:57:00.934Z,101126.79
2023-02-15T18:59:31.361Z,101123.39
2023-02-15T19:02:00.705Z,101118.83
2023-02-15T19:04:29.098Z,101120.44
2023-02-15T19:06:57.834Z,101111.70
2023-02-15T19:09:27.969Z,101118.70
2023-02-15T19:11:56.736Z,101119.33
2023-02-15T19:14:26.692Z,101113.65
2023-02-15T19:16:55.407Z,101105.82
2023-02-15T19:19:24.797Z,101099.39
2023-02-15T19:21:53.977Z,101098.42
2023-02-15T19:24:30.151Z,101095.58
2023-02-15T19:26:58.577Z,101095.71
2023-02-15T19:29:30.732Z,101093.25
2023-02-15T19:31:59.217Z,101090.31
2023-02-15T19:34:28.374Z,101081.66
2023-02-15T19:36:56.991Z,101075.55
2023-02-15T19:39:33.225Z,101068.30
2023-02-15T19:42:01.747Z,101075.58
2023-02-15T19:44:30.133Z,101071.52
2023-02-15T19:46:58.489Z,101069.67
2023-02-15T19:49:26.822Z,101063.45
2023-02-15T19:51:56.008Z,101060.73
2023-02-15T19:54:24.315Z,101059.83
2023-02-15T19:56:52.570Z,101058.45
2023-02-15T19:59:29.446Z,101053.65
2023-02-15T20:01:58.811Z,101053.79
2023-02-15T20:04:27.385Z,101055.81
2023-02-15T20:06:59.644Z,101053.70
2023-02-15T20:09:41.081Z,101050.52
2023-02-15T20:12:22.129Z,101049.65
2023-02-15T20:14:51.582Z,101049.52
2023-02-15T20:17:19.984Z,101050.86
2023-02-15T20:19:48.373Z,101053.73
2023-02-15T20:22:27.487Z,101051.42
2023-02-15T20:24:57.230Z,101049.59
2023-02-15T20:27:26.703Z,101042.67
2023-02-15T20:29:57.569Z,101040.82
2023-02-15T20:32:26.077Z,101036.17
2023-02-15T20:34:54.488Z,101030.66
2023-02-15T20:37:29.080Z,101029.92
2023-02-15T20:39:57.574Z,101024.16
2023-02-15T20:42:25.816Z,101023.39
2023-02-15T20:44:54.600Z,101019.64
2023-02-15T20:47:23.055Z,101011.31
2023-02-15T20:49:51.525Z,101018.81
2023-02-15T20:52:21.260Z,101017.86
2023-02-15T20:54:49.723Z,101017.86
2023-02-15T20:57:18.274Z,101013.12
2023-02-15T20:59:46.593Z,101014.48
2023-02-15T21:02:21.455Z,101008.92
2023-02-15T21:04:50.191Z,101006.82
2023-02-15T21:07:20.753Z,101006.85
2023-02-15T21:09:50.322Z,101004.61
2023-02-15T21:12:21.694Z,101001.49
2023-02-15T21:14:50.208Z,101005.77
2023-02-15T21:17:18.681Z,101005.96
2023-02-15T21:19:54.438Z,101004.48
2023-02-15T21:22:24.003Z,101003.20
2023-02-15T21:24:55.128Z,101000.42
2023-02-15T21:27:24.802Z,100999.95
2023-02-15T21:29:53.137Z,100998.90
2023-02-15T21:32:21.583Z,100997.65
2023-02-15T21:34:49.930Z,101002.42
2023-02-15T21:37:31.143Z,100998.36
2023-02-15T21:39:59.596Z,100990.88
2023-02-15T21:42:47.647Z,100991.40
2023-02-15T21:45:36.700Z,100989.35
2023-02-15T21:48:05.297Z,100984.57
2023-02-15T21:50:54.815Z,100973.48
2023-02-15T21:53:31.398Z,100971.67
2023-02-15T21:56:02.306Z,100969.08
2023-02-15T21:58:33.813Z,100970.19
2023-02-15T22:01:03.392Z,100968.70
2023-02-15T22:03:35.403Z,100971.29
2023-02-15T22:06:04.883Z,100972.85
2023-02-15T22:08:34.359Z,100967.97
2023-02-15T22:11:03.019Z,100969.02
2023-02-15T22:13:34.729Z,100968.35
2023-02-15T22:16:03.549Z,100964.21
2023-02-15T22:18:35.222Z,100962.55
2023-02-15T22:21:04.612Z,100961.92
2023-02-15T22:23:33.122Z,100960.86
2023-02-15T22:26:08.070Z,100959.24
2023-02-15T22:28:39.009Z,100953.31
2023-02-15T22:31:12.628Z,100953.60
2023-02-15T22:33:41.312Z,100950.98
2023-02-15T22:36:25.132Z,100957.55
2023-02-15T22:38:56.370Z,100956.38
2023-02-15T22:41:29.089Z,100958.06
2023-02-15T22:43:58.185Z,100963.39
2023-02-15T22:46:26.984Z,100967.19
2023-02-15T22:48:55.425Z,100967.09
2023-02-15T22:51:25.123Z,100967.29
2023-02-15T22:53:54.073Z,100967.15
2023-02-15T22:56:26.664Z,100967.64
2023-02-15T22:59:02.199Z,100967.85
2023-02-15T23:01:32.988Z,100969.40
2023-02-15T23:04:03.634Z,100960.38
2023-02-15T23:06:34.530Z,100952.11
2023-02-15T23:09:03.923Z,100953.63
2023-02-15T23:11:32.261Z,100951.69
2023-02-15T23:14:04.764Z,100950.95
2023-02-15T23:16:37.540Z,100944.32
2023-02-15T23:19:06.812Z,100938.95
2023-02-15T23:21:35.375Z,100936.53
2023-02-15T23:24:23.950Z,100933.70
2023-02-15T23:26:52.739Z,100932.73
2023-02-15T23:29:23.508Z,100933.18
2023-02-15T23:31:54.601Z,100932.73
2023-02-15T23:34:29.815Z,100936.90
2023-02-15T23:36:58.342Z,100933.29
2023-02-15T23:39:54.690Z,100931.68
2023-02-15T23:42:31.955Z,100934.20
2023-02-15T23:45:00.611Z,100938.09
2023-02-15T23:47:51.110Z,100938.17
2023-02-15T23:50:26.477Z,100934.52
2023-02-15T23:52:56.004Z,100925.86
2023-02-15T23:55:28.689Z,100923.69
2023-02-15T23:57:57.105Z,100918.16
